Time;durP1;ratioP1;P1;durP2;ratioP2;P2;SDS_P1;SDS_P2;PMS_P1;PMS_P2;Temp;Humidity;BMP_temperature;BMP_pressure;BME280_temperature;BME280_humidity;BME280_pressure;Samples;Min_cycle;Max_cycle;Signal;HPM_P1;HPM_P2
2023/08/21 00:00:14;;;;;;;5.57;1.85;;;23.30;98.30;;;;;;5053487;28;20064;-76
2023/08/21 00:02:40;;;;;;;7.38;2.00;;;23.30;98.20;;;;;;5053738;28;20017;-72
2023/08/21 00:05:06;;;;;;;7.43;1.63;;;23.30;98.10;;;;;;5053679;28;20470;-71
2023/08/21 00:07:32;;;;;;;6.43;1.45;;;23.30;98.00;;;;;;5053659;28;20048;-76
2023/08/21 00:09:57;;;;;;;7.03;1.52;;;23.30;98.10;;;;;;5053796;28;20021;-77
2023/08/21 00:12:23;;;;;;;10.02;1.67;;;23.30;98.10;;;;;;5053571;28;20112;-71
2023/08/21 00:14:48;;;;;;;7.78;1.50;;;23.30;98.30;;;;;;5053455;28;20025;-74
2023/08/21 00:17:14;;;;;;;5.57;1.27;;;23.30;98.20;;;;;;5053612;28;20474;-76
2023/08/21 00:19:39;;;;;;;5.45;1.58;;;23.30;98.20;;;;;;5053459;28;20118;-82
2023/08/21 00:22:05;;;;;;;6.78;1.20;;;23.20;98.20;;;;;;5053642;28;20032;-76
2023/08/21 00:24:31;;;;;;;4.97;1.23;;;23.20;98.40;;;;;;5053303;28;20029;-74
2023/08/21 00:26:56;;;;;;;8.98;1.60;;;23.20;98.40;;;;;;5053409;28;20083;-77
2023/08/21 00:29:22;;;;;;;4.82;1.30;;;23.20;98.50;;;;;;5052994;28;20020;-72
2023/08/21 00:31:47;;;;;;;4.57;1.20;;;23.20;98.50;;;;;;5053286;28;20033;-74
2023/08/21 00:34:13;;;;;;;7.57;1.95;;;23.20;98.60;;;;;;5053170;28;20016;-79
2023/08/21 00:36:39;;;;;;;7.55;1.88;;;23.20;98.70;;;;;;5053358;28;20025;-70
2023/08/21 00:39:04;;;;;;;6.50;1.35;;;23.10;98.70;;;;;;5053255;28;20123;-73
2023/08/21 00:41:30;;;;;;;5.45;1.70;;;23.20;98.80;;;;;;5053193;28;20382;-80
2023/08/21 00:43:56;;;;;;;5.28;1.50;;;23.10;98.80;;;;;;5052790;28;20374;-81
2023/08/21 00:46:22;;;;;;;5.47;1.45;;;23.10;98.90;;;;;;5053157;28;20029;-81
2023/08/21 00:48:47;;;;;;;6.53;1.73;;;23.10;98.90;;;;;;5053034;28;20029;-81
2023/08/21 00:51:16;;;;;;;5.88;1.65;;;23.10;98.90;;;;;;5053240;28;20016;-69
2023/08/21 00:53:43;;;;;;;8.27;1.80;;;23.10;99.00;;;;;;5052873;28;20052;-81
2023/08/21 00:56:09;;;;;;;5.47;1.52;;;23.00;99.10;;;;;;5053108;28;20029;-81
2023/08/21 00:58:35;;;;;;;5.68;1.50;;;23.00;99.10;;;;;;5052924;28;20504;-73
2023/08/21 01:01:01;;;;;;;5.38;1.70;;;23.00;99.10;;;;;;5053178;28;20486;-78
2023/08/21 01:03:26;;;;;;;7.35;1.92;;;23.00;99.20;;;;;;5052970;28;20100;-70
2023/08/21 01:05:52;;;;;;;6.18;1.52;;;23.00;99.30;;;;;;5052846;28;20021;-76
2023/08/21 01:08:18;;;;;;;7.03;1.60;;;22.90;99.40;;;;;;5052959;28;20040;-81
2023/08/21 01:10:58;;;;;;;5.95;1.50;;;23.00;99.50;;;;;;5053074;28;20079;-73
2023/08/21 01:13:54;;;;;;;6.95;1.38;;;22.90;99.40;;;;;;5052686;28;20075;-71
2023/08/21 01:16:21;;;;;;;8.98;1.80;;;22.90;99.50;;;;;;5039555;28;20040;-78
2023/08/21 01:18:48;;;;;;;4.97;1.80;;;22.90;99.40;;;;;;5052812;28;20017;-69
2023/08/21 01:21:15;;;;;;;6.57;1.60;;;22.90;99.30;;;;;;5052972;28;20017;-70
2023/08/21 01:23:44;;;;;;;7.80;1.40;;;22.90;99.20;;;;;;5052813;28;20021;-74
2023/08/21 01:26:10;;;;;;;6.05;1.63;;;22.90;99.20;;;;;;5052456;28;20084;-76
2023/08/21 01:28:35;;;;;;;5.05;1.52;;;22.90;99.20;;;;;;5052913;28;20437;-76
2023/08/21 01:31:17;;;;;;;7.43;2.00;;;22.90;99.00;;;;;;5052714;28;20025;-71
2023/08/21 01:33:47;;;;;;;6.28;1.55;;;22.90;99.10;;;;;;5052630;28;20438;-76
2023/08/21 01:36:14;;;;;;;5.93;1.63;;;22.90;99.20;;;;;;5052687;28;20056;-70
2023/08/21 01:38:41;;;;;;;7.88;2.25;;;22.80;99.20;;;;;;5052702;28;20032;-73
2023/08/21 01:41:06;;;;;;;10.90;2.13;;;22.80;99.30;;;;;;5052428;28;20431;-69
2023/08/21 01:43:32;;;;;;;5.43;1.50;;;22.80;99.30;;;;;;5052433;28;20462;-79
2023/08/21 01:45:58;;;;;;;8.88;1.75;;;22.80;99.30;;;;;;5052477;28;20025;-75
2023/08/21 01:48:23;;;;;;;6.75;2.33;;;22.80;99.70;;;;;;5052616;28;20067;-72
2023/08/21 01:50:49;;;;;;;6.80;1.75;;;22.80;99.50;;;;;;5052593;28;20463;-69
2023/08/21 01:53:15;;;;;;;5.85;1.67;;;22.80;99.50;;;;;;5048316;28;20512;-72
2023/08/21 01:55:40;;;;;;;7.68;2.10;;;22.80;99.50;;;;;;5049574;28;20025;-71
2023/08/21 01:58:06;;;;;;;6.07;1.88;;;22.80;99.50;;;;;;5050638;28;20024;-81
2023/08/21 02:00:31;;;;;;;9.35;2.10;;;22.70;99.40;;;;;;5051872;28;20064;-69
2023/08/21 02:02:57;;;;;;;6.00;1.73;;;22.70;99.40;;;;;;5052752;28;20113;-71
2023/08/21 02:05:23;;;;;;;8.73;2.05;;;22.70;99.30;;;;;;5052066;28;20056;-69
2023/08/21 02:07:48;;;;;;;6.43;1.70;;;22.70;99.30;;;;;;5052398;28;20057;-71
2023/08/21 02:10:14;;;;;;;8.57;2.22;;;22.70;99.20;;;;;;5054714;28;20374;-69
2023/08/21 02:12:39;;;;;;;7.80;2.45;;;22.70;99.30;;;;;;5055788;28;20048;-71
2023/08/21 02:15:05;;;;;;;6.35;2.03;;;22.60;99.30;;;;;;5053752;28;20021;-69
2023/08/21 02:17:32;;;;;;;8.98;1.85;;;22.60;99.20;;;;;;5055588;28;20028;-75
2023/08/21 02:19:57;;;;;;;7.00;1.75;;;22.60;99.20;;;;;;5055436;28;20025;-81
2023/08/21 02:22:23;;;;;;;6.45;1.90;;;22.60;99.20;;;;;;5055663;28;20058;-77
2023/08/21 02:24:49;;;;;;;6.45;1.92;;;22.60;99.30;;;;;;5055088;28;20025;-71
2023/08/21 02:27:14;;;;;;;6.93;1.90;;;22.60;99.30;;;;;;5055741;28;20189;-68
2023/08/21 02:29:40;;;;;;;6.15;2.05;;;22.60;99.40;;;;;;5055472;28;20025;-68
2023/08/21 02:32:06;;;;;;;7.70;2.00;;;22.50;99.40;;;;;;5055316;28;20032;-68
2023/08/21 02:34:31;;;;;;;5.60;1.70;;;22.50;99.40;;;;;;5055260;28;20029;-69
2023/08/21 02:36:58;;;;;;;8.65;2.40;;;22.50;99.40;;;;;;5055471;28;20470;-69
2023/08/21 02:39:24;;;;;;;7.93;2.25;;;22.50;99.50;;;;;;5054433;28;20025;-69
2023/08/21 02:41:49;;;;;;;6.68;1.95;;;22.50;99.40;;;;;;5055056;28;20082;-73
2023/08/21 02:44:15;;;;;;;9.13;2.72;;;22.50;99.40;;;;;;5054482;28;20029;-68
2023/08/21 02:46:40;;;;;;;9.07;2.45;;;22.50;99.30;;;;;;5054468;28;20115;-71
2023/08/21 02:49:06;;;;;;;8.32;2.75;;;22.40;99.30;;;;;;5055182;28;20048;-69
2023/08/21 02:51:32;;;;;;;6.95;2.30;;;22.40;99.40;;;;;;5055131;28;20107;-78
2023/08/21 02:53:57;;;;;;;10.38;2.70;;;22.40;99.40;;;;;;5054867;28;20017;-73
2023/08/21 02:56:23;;;;;;;7.15;2.30;;;22.40;99.50;;;;;;5054967;28;20104;-71
2023/08/21 02:58:48;;;;;;;7.90;2.55;;;22.40;99.40;;;;;;5054943;28;20025;-70
2023/08/21 03:01:14;;;;;;;11.38;2.40;;;22.40;99.50;;;;;;5055149;28;20052;-71
2023/08/21 03:03:39;;;;;;;7.18;2.00;;;22.40;99.50;;;;;;5054949;28;20017;-70
2023/08/21 03:06:05;;;;;;;9.70;2.30;;;22.40;99.60;;;;;;5055051;28;20021;-74
2023/08/21 03:08:31;;;;;;;8.68;2.53;;;22.30;99.50;;;;;;5054225;28;20028;-71
2023/08/21 03:10:56;;;;;;;7.78;2.25;;;22.30;99.50;;;;;;5054639;28;20103;-75
2023/08/21 03:13:22;;;;;;;8.15;2.22;;;22.30;99.60;;;;;;5054701;28;20477;-82
2023/08/21 03:15:48;;;;;;;7.57;2.58;;;22.30;99.60;;;;;;5054811;28;20029;-77
2023/08/21 03:18:13;;;;;;;5.82;1.90;;;22.30;99.60;;;;;;5054556;28;20029;-77
2023/08/21 03:20:45;;;;;;;6.38;2.72;;;22.30;99.60;;;;;;5053555;28;20024;-81
2023/08/21 03:23:11;;;;;;;3.90;2.00;;;22.20;99.60;;;;;;5054234;28;20466;-72
2023/08/21 03:25:36;;;;;;;7.70;2.25;;;22.20;99.60;;;;;;5069997;28;20057;-77
2023/08/21 03:28:02;;;;;;;8.35;2.60;;;22.20;99.60;;;;;;5054634;28;20041;-81
2023/08/21 03:30:28;;;;;;;8.38;2.50;;;22.20;99.60;;;;;;5054639;28;20052;-77
2023/08/21 03:32:53;;;;;;;6.85;2.45;;;22.20;99.60;;;;;;5054263;28;20462;-79
2023/08/21 03:35:19;;;;;;;8.57;2.58;;;22.10;99.60;;;;;;5054404;28;20077;-74
2023/08/21 03:37:45;;;;;;;10.20;2.47;;;22.10;99.50;;;;;;5053916;28;20058;-74
2023/08/21 03:40:10;;;;;;;9.85;2.55;;;22.10;99.50;;;;;;5054381;28;20146;-78
2023/08/21 03:42:36;;;;;;;9.82;2.60;;;22.10;99.30;;;;;;5053000;28;20474;-77
2023/08/21 03:45:04;;;;;;;10.40;2.83;;;22.10;99.20;;;;;;5054188;28;20470;-81
2023/08/21 03:47:30;;;;;;;8.77;3.50;;;22.10;99.20;;;;;;5054188;28;20409;-77
2023/08/21 03:49:56;;;;;;;6.63;2.85;;;22.10;99.20;;;;;;5053983;28;20509;-77
2023/08/21 03:52:21;;;;;;;8.15;2.15;;;22.00;99.10;;;;;;5053578;28;20059;-69
2023/08/21 03:54:47;;;;;;;10.60;2.58;;;22.00;99.10;;;;;;5054015;28;20024;-77
2023/08/21 03:57:13;;;;;;;7.22;2.45;;;22.00;99.20;;;;;;5053440;28;20036;-70
2023/08/21 03:59:38;;;;;;;8.27;2.60;;;22.00;99.20;;;;;;5052053;28;20409;-69
2023/08/21 04:02:04;;;;;;;6.20;1.90;;;22.00;99.20;;;;;;5053382;28;20104;-69
2023/08/21 04:04:29;;;;;;;6.95;2.45;;;22.00;99.30;;;;;;5052305;28;20040;-69
2023/08/21 04:06:55;;;;;;;6.55;2.13;;;22.00;99.20;;;;;;5053512;28;20490;-72
2023/08/21 04:09:21;;;;;;;6.43;2.25;;;21.90;99.20;;;;;;5053632;28;20044;-69
2023/08/21 04:11:46;;;;;;;10.95;2.60;;;21.90;99.20;;;;;;5053659;28;20021;-69
2023/08/21 04:14:12;;;;;;;8.55;2.20;;;21.90;99.20;;;;;;5053478;28;20516;-68
2023/08/21 04:16:37;;;;;;;9.25;2.13;;;21.90;99.20;;;;;;5053818;28;20059;-74
2023/08/21 04:19:03;;;;;;;10.93;2.28;;;21.90;99.20;;;;;;5053439;28;20021;-69
2023/08/21 04:21:29;;;;;;;7.78;2.33;;;21.90;99.30;;;;;;5053388;28;20025;-69
2023/08/21 04:23:55;;;;;;;6.70;1.95;;;21.90;99.30;;;;;;5053442;28;20549;-76
2023/08/21 04:26:20;;;;;;;8.73;2.60;;;21.80;99.20;;;;;;5053299;28;20033;-79
2023/08/21 04:28:46;;;;;;;7.28;2.42;;;21.80;99.30;;;;;;5053553;28;20013;-80
2023/08/21 04:31:11;;;;;;;6.53;2.45;;;21.80;99.30;;;;;;5052967;28;20067;-82
2023/08/21 04:33:37;;;;;;;11.07;3.00;;;21.80;99.30;;;;;;5053291;28;20024;-78
2023/08/21 04:36:03;;;;;;;8.20;2.50;;;21.80;99.30;;;;;;5053133;28;20076;-72
2023/08/21 04:38:28;;;;;;;7.90;2.22;;;21.70;99.20;;;;;;5053355;28;20492;-78
2023/08/21 04:40:54;;;;;;;8.80;2.40;;;21.80;99.30;;;;;;5053170;28;20051;-69
2023/08/21 04:43:19;;;;;;;9.05;2.80;;;21.80;99.30;;;;;;5053106;28;20108;-72
2023/08/21 04:45:55;;;;;;;8.13;2.60;;;21.70;99.30;;;;;;5053279;28;20020;-73
2023/08/21 04:48:21;;;;;;;6.80;2.55;;;21.70;99.30;;;;;;5053129;28;20402;-71
2023/08/21 04:50:47;;;;;;;9.77;2.95;;;21.70;99.30;;;;;;5052892;28;20032;-80
2023/08/21 04:53:13;;;;;;;7.03;2.65;;;21.70;99.40;;;;;;5052894;28;20021;-77
2023/08/21 04:55:40;;;;;;;10.55;3.28;;;21.70;99.40;;;;;;5053077;28;20025;-73
2023/08/21 04:58:06;;;;;;;7.72;2.45;;;21.70;99.30;;;;;;5051858;28;20037;-80
2023/08/21 05:00:32;;;;;;;6.82;2.90;;;21.70;99.30;;;;;;5051560;28;20060;-73
2023/08/21 05:02:58;;;;;;;9.63;2.72;;;21.70;99.30;;;;;;5053051;28;20056;-81
2023/08/21 05:05:23;;;;;;;11.15;3.20;;;21.60;99.30;;;;;;5052531;28;20021;-73
2023/08/21 05:07:49;;;;;;;10.45;3.45;;;21.60;99.70;;;;;;5051820;28;20037;-79
2023/08/21 05:10:15;;;;;;;13.13;3.90;;;21.60;99.40;;;;;;5052878;28;20017;-70
2023/08/21 05:12:40;;;;;;;8.93;3.55;;;21.50;99.40;;;;;;5052794;28;20032;-74
2023/08/21 05:15:06;;;;;;;17.38;3.40;;;21.50;99.40;;;;;;5052713;28;20096;-68
2023/08/21 05:17:32;;;;;;;12.13;3.60;;;21.60;99.50;;;;;;5050813;28;20047;-68
2023/08/21 05:19:57;;;;;;;9.48;3.40;;;21.50;99.50;;;;;;5048159;28;20013;-74
2023/08/21 05:22:23;;;;;;;10.50;3.10;;;21.50;99.60;;;;;;5049300;28;20509;-76
2023/08/21 05:24:49;;;;;;;9.75;3.33;;;21.50;99.70;;;;;;5052692;28;20539;-72
2023/08/21 05:27:14;;;;;;;8.82;2.92;;;21.50;99.70;;;;;;5050398;28;20044;-80
2023/08/21 05:29:40;;;;;;;11.63;3.25;;;21.40;99.80;;;;;;5049941;28;20025;-71
2023/08/21 05:32:05;;;;;;;13.45;3.83;;;21.40;99.80;;;;;;5051284;28;20139;-68
2023/08/21 05:34:32;;;;;;;11.90;3.22;;;21.40;99.80;;;;;;5050984;28;20021;-73
2023/08/21 05:36:57;;;;;;;9.20;3.17;;;21.40;99.90;;;;;;5052213;28;20025;-70
2023/08/21 05:39:23;;;;;;;10.00;3.22;;;21.40;99.90;;;;;;5052404;28;20032;-73
2023/08/21 05:41:49;;;;;;;12.68;3.63;;;21.40;99.90;;;;;;5051234;28;20053;-79
2023/08/21 05:44:14;;;;;;;10.35;3.53;;;21.40;99.90;;;;;;5051209;28;20037;-69
2023/08/21 05:46:40;;;;;;;10.23;4.93;;;21.40;99.90;;;;;;5050931;28;20044;-68
2023/08/21 05:49:05;;;;;;;10.57;3.53;;;21.40;99.90;;;;;;5054676;28;20044;-69
2023/08/21 05:51:31;;;;;;;8.07;3.72;;;21.50;99.90;;;;;;5052835;28;20509;-71
2023/08/21 05:53:56;;;;;;;14.65;4.45;;;21.50;99.90;;;;;;5053587;28;20041;-70
2023/08/21 05:56:23;;;;;;;15.57;4.18;;;21.50;99.90;;;;;;5052328;28;20025;-68
2023/08/21 05:58:49;;;;;;;15.55;4.70;;;21.60;99.90;;;;;;5051909;28;20029;-67
2023/08/21 06:01:14;;;;;;;11.88;4.10;;;21.60;99.90;;;;;;5055156;28;20032;-68
2023/08/21 06:03:40;;;;;;;10.23;4.43;;;21.60;99.90;;;;;;5049227;28;20077;-69
2023/08/21 06:06:06;;;;;;;12.55;4.22;;;21.60;99.90;;;;;;5054674;28;20032;-71
2023/08/21 06:08:31;;;;;;;14.20;3.95;;;21.60;99.90;;;;;;5054509;28;20043;-70
2023/08/21 06:10:57;;;;;;;13.90;5.20;;;21.60;99.90;;;;;;5056038;28;20021;-69
2023/08/21 06:13:23;;;;;;;18.25;5.25;;;21.70;99.90;;;;;;5055926;28;20119;-69
2023/08/21 06:15:48;;;;;;;18.45;5.00;;;21.70;99.90;;;;;;5055669;28;20063;-69
2023/08/21 06:18:15;;;;;;;13.25;4.80;;;21.70;99.90;;;;;;5054184;28;20025;-72
2023/08/21 06:20:43;;;;;;;18.65;6.43;;;21.70;99.90;;;;;;5055669;28;20014;-69
2023/08/21 06:23:10;;;;;;;17.17;4.90;;;21.80;99.90;;;;;;5053314;28;20033;-80
2023/08/21 06:25:36;;;;;;;15.05;4.53;;;21.80;99.90;;;;;;5055564;28;20500;-77
2023/08/21 06:28:02;;;;;;;16.08;4.40;;;21.80;99.90;;;;;;5047990;28;20053;-68
2023/08/21 06:30:27;;;;;;;13.52;4.82;;;21.80;99.90;;;;;;5053748;28;20021;-69
2023/08/21 06:32:54;;;;;;;15.48;5.22;;;21.80;99.90;;;;;;5052024;28;20033;-67
2023/08/21 06:35:19;;;;;;;11.27;4.60;;;21.90;99.90;;;;;;5055539;28;20021;-75
2023/08/21 06:37:45;;;;;;;12.52;4.43;;;21.90;99.90;;;;;;5053306;28;20094;-69
2023/08/21 06:40:11;;;;;;;12.75;5.05;;;21.90;99.90;;;;;;5055509;28;20025;-68
2023/08/21 06:42:37;;;;;;;14.50;4.97;;;21.90;99.90;;;;;;5055336;28;20020;-71
2023/08/21 06:45:04;;;;;;;13.05;4.72;;;21.90;99.90;;;;;;5053325;28;20384;-70
2023/08/21 06:47:30;;;;;;;12.30;4.43;;;22.00;99.90;;;;;;5053146;28;20393;-70
2023/08/21 06:49:55;;;;;;;10.13;3.83;;;22.00;99.90;;;;;;5055113;28;20043;-68
2023/08/21 06:52:21;;;;;;;13.50;4.40;;;22.10;99.90;;;;;;5061476;28;20567;-68
2023/08/21 06:54:46;;;;;;;13.00;4.43;;;22.10;99.90;;;;;;5052659;28;20036;-68
2023/08/21 06:57:12;;;;;;;14.07;4.78;;;22.10;99.90;;;;;;5052674;28;20477;-68
2023/08/21 06:59:38;;;;;;;15.93;5.43;;;22.10;99.90;;;;;;5055492;28;20469;-68
2023/08/21 07:02:03;;;;;;;12.73;4.72;;;22.10;99.90;;;;;;5056153;28;20377;-69
2023/08/21 07:04:29;;;;;;;13.85;4.85;;;22.10;99.90;;;;;;5054228;28;20032;-68
2023/08/21 07:06:55;;;;;;;15.05;5.47;;;22.20;99.90;;;;;;5053323;28;20048;-68
2023/08/21 07:09:20;;;;;;;14.02;5.38;;;22.20;99.90;;;;;;5054575;28;20521;-68
2023/08/21 07:11:46;;;;;;;13.25;4.88;;;22.20;99.90;;;;;;5055555;28;20028;-67
2023/08/21 07:14:13;;;;;;;15.57;5.18;;;22.20;99.90;;;;;;5054033;28;20501;-73
2023/08/21 07:16:39;;;;;;;12.88;5.07;;;22.20;99.90;;;;;;5054672;28;20029;-71
2023/08/21 07:19:05;;;;;;;16.55;5.45;;;22.20;99.90;;;;;;5054272;28;20063;-69
2023/08/21 07:21:31;;;;;;;11.70;5.45;;;22.30;99.90;;;;;;5052415;28;20056;-76
2023/08/21 07:23:56;;;;;;;16.40;5.45;;;22.30;99.90;;;;;;5051878;28;20059;-71
2023/08/21 07:26:22;;;;;;;12.88;4.28;;;22.30;99.90;;;;;;5055267;28;20490;-69
2023/08/21 07:28:47;;;;;;;15.65;5.32;;;22.30;99.90;;;;;;5056086;28;20075;-75
2023/08/21 07:31:13;;;;;;;14.15;5.47;;;22.40;99.90;;;;;;5055601;28;20013;-69
2023/08/21 07:33:39;;;;;;;13.55;4.82;;;22.40;99.90;;;;;;5050117;28;20381;-68
2023/08/21 07:36:06;;;;;;;13.50;4.47;;;22.40;99.90;;;;;;5052533;28;20029;-69
2023/08/21 07:38:32;;;;;;;11.43;4.35;;;22.50;99.90;;;;;;5053638;28;20017;-69
2023/08/21 07:41:10;;;;;;;11.75;4.78;;;22.50;99.90;;;;;;5053425;28;20029;-72
2023/08/21 07:43:36;;;;;;;11.07;4.57;;;22.60;99.90;;;;;;5063272;28;20029;-71
2023/08/21 07:46:06;;;;;;;11.02;4.30;;;22.60;99.90;;;;;;5052103;28;20087;-74
2023/08/21 07:48:32;;;;;;;16.35;4.47;;;22.60;99.90;;;;;;5052634;28;20044;-76
2023/08/21 07:50:58;;;;;;;11.25;4.63;;;22.70;99.90;;;;;;5053957;28;20470;-69
2023/08/21 07:53:25;;;;;;;9.75;3.97;;;22.70;99.90;;;;;;5053732;28;20029;-69
2023/08/21 07:55:50;;;;;;;11.20;3.97;;;22.70;99.90;;;;;;5053671;28;20025;-83
2023/08/21 07:58:16;;;;;;;8.88;3.53;;;22.80;99.90;;;;;;5050612;28;20123;-70
2023/08/21 08:00:44;;;;;;;10.48;2.85;;;22.80;99.90;;;;;;5049716;28;20029;-68
2023/08/21 08:03:11;;;;;;;10.32;3.60;;;22.80;99.90;;;;;;5051363;28;20033;-69
2023/08/21 08:05:38;;;;;;;11.65;3.50;;;22.90;99.90;;;;;;5049566;28;20103;-68
2023/08/21 08:08:03;;;;;;;11.55;3.60;;;22.90;99.90;;;;;;5053081;28;20036;-69
2023/08/21 08:10:29;;;;;;;10.73;3.42;;;23.00;99.90;;;;;;5053528;28;20020;-69
2023/08/21 08:12:55;;;;;;;14.75;3.97;;;23.00;99.90;;;;;;5050400;28;20039;-69
2023/08/21 08:15:22;;;;;;;11.70;4.47;;;23.00;99.90;;;;;;5058225;28;20479;-69
2023/08/21 08:17:51;;;;;;;8.60;3.47;;;23.10;99.90;;;;;;5062791;28;20115;-83
2023/08/21 08:20:17;;;;;;;9.95;3.03;;;23.10;99.90;;;;;;5049999;28;20071;-68
2023/08/21 08:22:43;;;;;;;11.88;3.22;;;23.20;99.90;;;;;;5052392;28;20482;-72
2023/08/21 08:25:08;;;;;;;6.93;2.17;;;23.20;99.90;;;;;;5050880;28;20117;-86
2023/08/21 08:27:34;;;;;;;10.32;3.25;;;23.20;99.90;;;;;;5051394;28;20116;-69
2023/08/21 08:30:00;;;;;;;9.05;2.90;;;23.30;99.90;;;;;;5052684;28;20052;-68
2023/08/21 08:32:26;;;;;;;9.10;2.88;;;23.30;99.90;;;;;;5053077;28;20032;-72
2023/08/21 08:34:53;;;;;;;8.85;3.30;;;23.40;99.90;;;;;;5053088;28;20040;-69
2023/08/21 08:37:19;;;;;;;10.05;2.47;;;23.40;99.90;;;;;;5052270;28;20433;-68
2023/08/21 08:39:47;;;;;;;8.65;3.03;;;23.40;99.90;;;;;;5050898;28;20038;-68
2023/08/21 08:42:14;;;;;;;9.48;2.78;;;23.40;99.90;;;;;;5052708;28;20078;-69
2023/08/21 08:44:41;;;;;;;6.07;2.28;;;23.50;99.90;;;;;;5052919;28;20032;-72
2023/08/21 08:47:07;;;;;;;11.02;2.70;;;23.50;99.90;;;;;;5053104;28;20421;-74
2023/08/21 08:49:33;;;;;;;10.60;2.33;;;23.50;99.90;;;;;;5052990;28;20021;-69
2023/08/21 08:52:00;;;;;;;6.80;1.90;;;23.50;99.90;;;;;;5053244;28;20108;-72
2023/08/21 08:54:27;;;;;;;7.45;2.47;;;23.60;99.90;;;;;;5051987;28;20025;-69
2023/08/21 08:56:53;;;;;;;8.82;2.55;;;23.60;99.90;;;;;;5053102;28;20111;-68
2023/08/21 08:59:19;;;;;;;11.32;3.38;;;23.70;99.90;;;;;;5052278;28;20013;-69
2023/08/21 09:01:44;;;;;;;10.05;4.00;;;23.70;99.90;;;;;;5050053;28;20039;-68
2023/08/21 09:04:10;;;;;;;8.98;2.30;;;23.70;99.90;;;;;;5053177;28;20021;-73
2023/08/21 09:06:36;;;;;;;9.45;2.55;;;23.70;99.90;;;;;;5051830;28;20041;-69
2023/08/21 09:09:01;;;;;;;9.27;2.25;;;23.80;99.90;;;;;;5051292;28;20033;-69
2023/08/21 09:11:27;;;;;;;9.07;2.70;;;23.80;99.90;;;;;;5051638;28;20074;-72
2023/08/21 09:13:55;;;;;;;8.48;2.33;;;23.80;99.90;;;;;;5052374;28;20052;-71
2023/08/21 09:16:22;;;;;;;5.22;2.05;;;23.80;99.90;;;;;;5050238;28;20041;-68
2023/08/21 09:18:56;;;;;;;9.00;2.03;;;23.80;99.90;;;;;;5055659;28;20043;-69
2023/08/21 09:21:24;;;;;;;9.85;1.92;;;23.80;99.90;;;;;;5056970;28;20120;-69
2023/08/21 09:23:56;;;;;;;6.43;2.15;;;23.90;99.90;;;;;;5056635;28;20116;-71
2023/08/21 09:26:23;;;;;;;6.35;1.77;;;23.90;99.90;;;;;;5054979;28;20474;-68
2023/08/21 09:28:50;;;;;;;7.72;2.65;;;23.90;99.90;;;;;;5057143;28;20035;-68
2023/08/21 09:31:16;;;;;;;7.25;2.25;;;23.90;99.90;;;;;;5056316;28;20095;-72
2023/08/21 09:33:42;;;;;;;6.60;2.63;;;23.90;99.90;;;;;;5053404;28;20125;-68
2023/08/21 09:36:10;;;;;;;8.10;2.30;;;24.00;99.90;;;;;;5052934;28;20071;-68
2023/08/21 09:38:39;;;;;;;5.95;1.65;;;24.00;99.90;;;;;;5056434;28;20024;-69
2023/08/21 09:41:06;;;;;;;8.75;1.83;;;24.00;99.90;;;;;;5054959;28;20021;-68
2023/08/21 09:43:33;;;;;;;5.72;1.30;;;24.00;99.80;;;;;;5055348;28;20025;-69
2023/08/21 09:45:58;;;;;;;14.18;2.10;;;24.10;99.50;;;;;;5056048;28;20056;-68
2023/08/21 09:48:27;;;;;;;9.55;1.90;;;24.10;98.60;;;;;;5055216;28;20052;-69
2023/08/21 09:50:53;;;;;;;9.10;1.80;;;24.10;98.90;;;;;;5054225;28;20068;-68
2023/08/21 09:53:23;;;;;;;5.72;1.10;;;24.10;99.20;;;;;;5055889;28;20028;-68
2023/08/21 09:55:55;;;;;;;4.60;1.02;;;24.10;98.20;;;;;;5055917;28;20423;-73
2023/08/21 09:58:21;;;;;;;;;;;24.20;98.40;;;;;;5056833;28;20055;-68
2023/08/21 10:00:49;;;;;;;3.47;0.90;;;24.20;98.30;;;;;;5054327;28;20007;-72
2023/08/21 10:03:20;;;;;;;5.22;0.65;;;24.20;98.40;;;;;;5056108;28;20021;-68
2023/08/21 10:05:47;;;;;;;3.97;1.05;;;24.20;97.20;;;;;;5054506;28;20469;-69
2023/08/21 10:08:15;;;;;;;4.70;1.10;;;24.20;97.90;;;;;;5055257;28;20037;-69
2023/08/21 10:10:41;;;;;;;4.22;1.15;;;24.20;98.10;;;;;;5066473;28;20020;-69
2023/08/21 10:13:08;;;;;;;6.15;1.30;;;24.30;98.00;;;;;;5059936;28;20029;-68
2023/08/21 10:15:36;;;;;;;5.10;1.20;;;24.20;98.00;;;;;;5054557;28;20033;-68
2023/08/21 10:18:24;;;;;;;4.45;1.10;;;24.30;98.00;;;;;;5055722;28;20116;-72
2023/08/21 10:20:51;;;;;;;5.82;0.98;;;24.30;98.00;;;;;;5055734;28;20493;-68
2023/08/21 10:23:28;;;;;;;5.07;1.33;;;24.30;98.00;;;;;;5055604;28;20417;-68
2023/08/21 10:25:58;;;;;;;4.55;1.08;;;24.30;97.90;;;;;;5055551;28;20017;-68
2023/08/21 10:28:23;;;;;;;3.83;1.10;;;24.30;97.90;;;;;;5055779;28;20445;-69
2023/08/21 10:30:49;;;;;;;2.95;0.90;;;24.30;97.80;;;;;;5054685;28;20496;-69
2023/08/21 10:33:15;;;;;;;3.88;1.25;;;24.30;97.60;;;;;;5055723;28;20017;-68
2023/08/21 10:35:40;;;;;;;5.30;1.38;;;24.40;97.60;;;;;;5054346;28;20021;-68
2023/08/21 10:38:16;;;;;;;7.38;1.40;;;24.40;97.10;;;;;;5052995;28;20029;-68
2023/08/21 10:41:04;;;;;;;4.03;1.45;;;24.40;97.10;;;;;;5048390;28;20420;-70
2023/08/21 10:43:40;;;;;;;3.13;0.90;;;24.40;97.20;;;;;;5053112;28;20040;-68
2023/08/21 10:46:06;;;;;;;2.70;0.88;;;24.40;97.50;;;;;;5051040;28;20048;-68
2023/08/21 10:48:32;;;;;;;4.78;1.38;;;24.40;97.60;;;;;;5055031;28;20056;-68
2023/08/21 10:51:03;;;;;;;4.88;0.93;;;24.40;97.60;;;;;;5055045;28;20026;-68
2023/08/21 10:53:30;;;;;;;2.95;0.82;;;24.40;97.60;;;;;;5045984;28;20028;-69
2023/08/21 10:55:56;;;;;;;3.33;0.85;;;24.40;97.60;;;;;;5055118;28;20553;-68
2023/08/21 10:58:22;;;;;;;3.00;1.00;;;24.40;97.60;;;;;;5054109;28;20032;-68
2023/08/21 11:01:01;;;;;;;2.75;0.82;;;24.40;97.50;;;;;;5053066;28;20403;-68
2023/08/21 11:03:27;;;;;;;3.45;1.05;;;24.50;97.40;;;;;;5053614;28;20029;-68
2023/08/21 11:06:06;;;;;;;4.55;1.13;;;24.50;97.30;;;;;;5053429;28;20033;-68
2023/08/21 11:08:33;;;;;;;5.43;1.95;;;24.50;97.20;;;;;;5054661;28;20032;-69
2023/08/21 11:11:05;;;;;;;3.88;1.00;;;24.50;97.00;;;;;;5043763;28;20045;-68
2023/08/21 11:13:31;;;;;;;5.85;1.00;;;24.50;97.20;;;;;;5051016;28;20044;-69
2023/08/21 11:16:05;;;;;;;6.47;1.83;;;24.60;97.20;;;;;;5052368;28;20020;-68
2023/08/21 11:18:32;;;;;;;5.60;1.70;;;24.60;97.10;;;;;;5044537;28;20029;-67
2023/08/21 11:21:08;;;;;;;6.05;1.45;;;24.50;97.10;;;;;;5040459;28;20036;-71
2023/08/21 11:23:36;;;;;;;7.15;1.77;;;24.60;97.10;;;;;;5055507;28;20120;-67
2023/08/21 11:26:03;;;;;;;5.05;1.33;;;24.60;97.10;;;;;;5052053;28;20021;-67
2023/08/21 11:28:29;;;;;;;5.13;1.55;;;24.60;97.10;;;;;;5052870;28;20037;-67
2023/08/21 11:30:56;;;;;;;8.23;3.30;;;24.60;97.00;;;;;;5050433;28;20028;-67
2023/08/21 11:33:22;;;;;;;6.05;2.72;;;24.60;96.50;;;;;;5038771;28;20040;-67
2023/08/21 11:35:47;;;;;;;7.53;2.20;;;24.60;96.50;;;;;;5042814;28;20024;-70
2023/08/21 11:38:21;;;;;;;7.32;2.15;;;24.60;96.50;;;;;;5052332;28;20036;-68
2023/08/21 11:40:58;;;;;;;8.05;1.73;;;24.70;95.90;;;;;;5059835;28;20057;-68
2023/08/21 11:43:41;;;;;;;6.72;1.80;;;24.60;96.30;;;;;;5049394;28;20029;-67
2023/08/21 11:46:10;;;;;;;5.93;2.28;;;24.60;97.00;;;;;;5051718;28;20422;-67
2023/08/21 11:48:40;;;;;;;7.88;1.88;;;24.70;96.10;;;;;;5049550;28;20029;-67
2023/08/21 11:51:07;;;;;;;4.38;1.70;;;24.60;95.50;;;;;;5053812;28;20021;-67
2023/08/21 11:53:34;;;;;;;4.20;1.45;;;24.70;96.50;;;;;;5053674;28;20066;-67
2023/08/21 11:56:00;;;;;;;4.22;1.30;;;24.80;96.70;;;;;;5053919;28;20057;-67
2023/08/21 11:58:29;;;;;;;4.72;1.67;;;24.70;96.70;;;;;;5053450;28;20513;-68
2023/08/21 12:01:03;;;;;;;3.50;1.20;;;24.70;96.60;;;;;;5053567;28;20021;-68
2023/08/21 12:03:41;;;;;;;5.97;1.58;;;24.80;96.70;;;;;;5089629;28;19912;-66
2023/08/21 12:06:08;;;;;;;4.03;1.55;;;24.80;96.60;;;;;;5065455;28;20025;-67
2023/08/21 12:08:34;;;;;;;4.38;2.42;;;24.80;96.60;;;;;;5070424;28;20370;-66
2023/08/21 12:11:00;;;;;;;5.95;2.20;;;24.80;96.20;;;;;;5070535;28;20028;-67
2023/08/21 12:13:26;;;;;;;6.03;2.22;;;24.80;95.70;;;;;;5069353;28;20033;-66
2023/08/21 12:15:51;;;;;;;4.75;2.00;;;24.80;96.20;;;;;;5059452;28;20036;-67
2023/08/21 12:18:17;;;;;;;7.70;2.30;;;24.80;95.50;;;;;;5055247;28;20425;-65
2023/08/21 12:20:42;;;;;;;4.75;1.45;;;24.80;94.50;;;;;;5050133;28;20025;-66
2023/08/21 12:23:08;;;;;;;6.45;1.73;;;24.90;95.30;;;;;;5054735;28;20488;-66
2023/08/21 12:25:33;;;;;;;4.18;1.50;;;24.90;96.10;;;;;;5059030;28;20025;-66
2023/08/21 12:27:59;;;;;;;5.10;1.83;;;24.90;96.40;;;;;;5069861;28;20504;-66
2023/08/21 12:30:25;;;;;;;3.95;1.45;;;24.90;96.40;;;;;;5067366;28;20025;-66
2023/08/21 12:32:51;;;;;;;3.78;1.33;;;24.90;96.50;;;;;;5071818;28;20250;-66
2023/08/21 12:35:16;;;;;;;5.72;1.52;;;24.90;96.50;;;;;;5069736;28;20063;-72
2023/08/21 12:37:42;;;;;;;5.55;1.50;;;24.90;96.50;;;;;;5070007;28;20064;-72
2023/08/21 12:40:08;;;;;;;5.38;1.48;;;24.90;96.40;;;;;;5068879;28;20025;-72